sensor_id;sensor_type;location;lat;lon;timestamp;P1;durP1;ratioP1;P2;durP2;ratioP2
25715;SDS011;13573;50.936;4.328;2022-07-29T00:00:24;5.93;;;1.80;;
25715;SDS011;13573;50.936;4.328;2022-07-29T00:02:50;3.20;;;1.60;;
25715;SDS011;13573;50.936;4.328;2022-07-29T00:05:17;5.83;;;1.60;;
25715;SDS011;13573;50.936;4.328;2022-07-29T00:07:43;3.63;;;2.00;;
25715;SDS011;13573;50.936;4.328;2022-07-29T00:10:10;3.07;;;1.67;;
25715;SDS011;13573;50.936;4.328;2022-07-29T00:12:36;3.33;;;1.40;;
25715;SDS011;13573;50.936;4.328;2022-07-29T00:15:03;4.87;;;1.70;;
25715;SDS011;13573;50.936;4.328;2022-07-29T00:17:31;3.53;;;1.63;;
25715;SDS011;13573;50.936;4.328;2022-07-29T00:19:59;5.53;;;1.80;;
25715;SDS011;13573;50.936;4.328;2022-07-29T00:22:26;4.90;;;1.83;;
25715;SDS011;13573;50.936;4.328;2022-07-29T00:24:53;6.00;;;1.87;;
25715;SDS011;13573;50.936;4.328;2022-07-29T00:27:20;7.77;;;1.60;;
25715;SDS011;13573;50.936;4.328;2022-07-29T00:29:46;4.00;;;1.80;;
25715;SDS011;13573;50.936;4.328;2022-07-29T00:32:14;5.50;;;1.70;;
25715;SDS011;13573;50.936;4.328;2022-07-29T00:34:40;6.60;;;1.50;;
25715;SDS011;13573;50.936;4.328;2022-07-29T00:37:13;3.73;;;1.70;;
25715;SDS011;13573;50.936;4.328;2022-07-29T00:39:39;4.30;;;1.50;;
25715;SDS011;13573;50.936;4.328;2022-07-29T00:42:06;5.47;;;1.77;;
25715;SDS011;13573;50.936;4.328;2022-07-29T00:44:40;5.37;;;1.60;;
25715;SDS011;13573;50.936;4.328;2022-07-29T00:47:08;7.60;;;1.87;;
25715;SDS011;13573;50.936;4.328;2022-07-29T00:49:35;3.73;;;1.83;;
25715;SDS011;13573;50.936;4.328;2022-07-29T00:52:03;5.00;;;1.60;;
25715;SDS011;13573;50.936;4.328;2022-07-29T00:54:32;2.80;;;1.70;;
25715;SDS011;13573;50.936;4.328;2022-07-29T00:57:00;5.53;;;1.80;;
25715;SDS011;13573;50.936;4.328;2022-07-29T00:59:27;3.63;;;2.07;;
25715;SDS011;13573;50.936;4.328;2022-07-29T01:01:54;5.63;;;1.80;;
25715;SDS011;13573;50.936;4.328;2022-07-29T01:04:21;5.37;;;2.00;;
25715;SDS011;13573;50.936;4.328;2022-07-29T01:06:48;4.63;;;1.73;;
25715;SDS011;13573;50.936;4.328;2022-07-29T01:09:16;3.70;;;1.80;;
25715;SDS011;13573;50.936;4.328;2022-07-29T01:11:44;6.47;;;1.60;;
25715;SDS011;13573;50.936;4.328;2022-07-29T01:14:14;4.23;;;1.87;;
25715;SDS011;13573;50.936;4.328;2022-07-29T01:16:46;5.97;;;1.97;;
25715;SDS011;13573;50.936;4.328;2022-07-29T01:19:27;5.83;;;2.17;;
25715;SDS011;13573;50.936;4.328;2022-07-29T01:30:04;2.43;;;1.63;;
25715;SDS011;13573;50.936;4.328;2022-07-29T01:32:33;5.20;;;1.70;;
25715;SDS011;13573;50.936;4.328;2022-07-29T01:35:07;10.33;;;2.27;;
25715;SDS011;13573;50.936;4.328;2022-07-29T01:37:39;3.00;;;1.93;;
25715;SDS011;13573;50.936;4.328;2022-07-29T01:40:11;4.57;;;2.17;;
25715;SDS011;13573;50.936;4.328;2022-07-29T01:42:42;2.73;;;1.70;;
25715;SDS011;13573;50.936;4.328;2022-07-29T01:45:14;4.43;;;1.97;;
25715;SDS011;13573;50.936;4.328;2022-07-29T01:47:46;4.43;;;1.90;;
25715;SDS011;13573;50.936;4.328;2022-07-29T01:50:37;8.63;;;2.40;;
25715;SDS011;13573;50.936;4.328;2022-07-29T01:53:06;5.97;;;2.10;;
25715;SDS011;13573;50.936;4.328;2022-07-29T01:55:36;4.47;;;2.20;;
25715;SDS011;13573;50.936;4.328;2022-07-29T01:58:07;4.77;;;2.00;;
25715;SDS011;13573;50.936;4.328;2022-07-29T02:00:35;6.60;;;2.13;;
25715;SDS011;13573;50.936;4.328;2022-07-29T02:03:05;4.10;;;2.20;;
25715;SDS011;13573;50.936;4.328;2022-07-29T02:05:34;6.23;;;2.37;;
25715;SDS011;13573;50.936;4.328;2022-07-29T02:08:03;4.67;;;2.23;;
25715;SDS011;13573;50.936;4.328;2022-07-29T02:10:32;6.20;;;2.00;;
25715;SDS011;13573;50.936;4.328;2022-07-29T02:13:00;6.70;;;1.90;;
25715;SDS011;13573;50.936;4.328;2022-07-29T02:15:30;2.77;;;2.00;;
25715;SDS011;13573;50.936;4.328;2022-07-29T02:18:02;6.10;;;2.10;;
25715;SDS011;13573;50.936;4.328;2022-07-29T02:20:30;3.80;;;1.87;;
25715;SDS011;13573;50.936;4.328;2022-07-29T02:22:57;7.33;;;2.40;;
25715;SDS011;13573;50.936;4.328;2022-07-29T02:25:25;5.90;;;2.20;;
25715;SDS011;13573;50.936;4.328;2022-07-29T02:27:54;5.73;;;2.10;;
25715;SDS011;13573;50.936;4.328;2022-07-29T02:30:22;4.33;;;2.03;;
25715;SDS011;13573;50.936;4.328;2022-07-29T02:32:51;7.07;;;2.33;;
25715;SDS011;13573;50.936;4.328;2022-07-29T02:35:20;7.73;;;2.50;;
25715;SDS011;13573;50.936;4.328;2022-07-29T02:37:47;5.27;;;2.30;;
25715;SDS011;13573;50.936;4.328;2022-07-29T02:40:34;7.60;;;2.37;;
25715;SDS011;13573;50.936;4.328;2022-07-29T02:43:03;5.80;;;2.40;;
25715;SDS011;13573;50.936;4.328;2022-07-29T02:45:33;6.83;;;2.40;;
25715;SDS011;13573;50.936;4.328;2022-07-29T02:48:00;8.80;;;2.17;;
25715;SDS011;13573;50.936;4.328;2022-07-29T02:50:34;7.07;;;2.50;;
25715;SDS011;13573;50.936;4.328;2022-07-29T02:53:05;11.33;;;2.60;;
25715;SDS011;13573;50.936;4.328;2022-07-29T02:55:37;5.23;;;2.53;;
25715;SDS011;13573;50.936;4.328;2022-07-29T02:58:45;5.63;;;2.60;;
25715;SDS011;13573;50.936;4.328;2022-07-29T03:00:58;11.27;;;2.73;;
25715;SDS011;13573;50.936;4.328;2022-07-29T03:03:28;5.03;;;2.73;;
25715;SDS011;13573;50.936;4.328;2022-07-29T03:05:59;5.17;;;2.43;;
25715;SDS011;13573;50.936;4.328;2022-07-29T03:08:25;13.47;;;3.80;;
25715;SDS011;13573;50.936;4.328;2022-07-29T03:10:54;7.13;;;2.87;;
25715;SDS011;13573;50.936;4.328;2022-07-29T03:13:24;5.90;;;2.50;;
25715;SDS011;13573;50.936;4.328;2022-07-29T03:15:54;5.60;;;2.60;;
25715;SDS011;13573;50.936;4.328;2022-07-29T03:18:22;6.43;;;2.83;;
25715;SDS011;13573;50.936;4.328;2022-07-29T03:20:50;15.27;;;3.53;;
25715;SDS011;13573;50.936;4.328;2022-07-29T03:23:19;9.47;;;3.07;;
25715;SDS011;13573;50.936;4.328;2022-07-29T03:25:48;6.67;;;2.90;;
25715;SDS011;13573;50.936;4.328;2022-07-29T03:28:16;3.33;;;2.50;;
25715;SDS011;13573;50.936;4.328;2022-07-29T03:30:42;5.30;;;3.17;;
25715;SDS011;13573;50.936;4.328;2022-07-29T03:33:10;6.93;;;3.23;;
25715;SDS011;13573;50.936;4.328;2022-07-29T03:35:37;4.63;;;3.00;;
25715;SDS011;13573;50.936;4.328;2022-07-29T03:38:04;9.73;;;3.00;;
25715;SDS011;13573;50.936;4.328;2022-07-29T03:40:31;6.93;;;3.10;;
25715;SDS011;13573;50.936;4.328;2022-07-29T03:43:02;7.53;;;3.20;;
25715;SDS011;13573;50.936;4.328;2022-07-29T03:45:30;6.70;;;3.30;;
25715;SDS011;13573;50.936;4.328;2022-07-29T03:47:59;5.77;;;2.80;;
25715;SDS011;13573;50.936;4.328;2022-07-29T03:50:29;8.97;;;2.97;;
25715;SDS011;13573;50.936;4.328;2022-07-29T03:52:57;5.77;;;2.93;;
25715;SDS011;13573;50.936;4.328;2022-07-29T03:55:24;4.87;;;2.70;;
25715;SDS011;13573;50.936;4.328;2022-07-29T03:57:52;12.23;;;3.37;;
25715;SDS011;13573;50.936;4.328;2022-07-29T04:00:21;6.73;;;2.87;;
25715;SDS011;13573;50.936;4.328;2022-07-29T04:02:50;7.33;;;2.90;;
25715;SDS011;13573;50.936;4.328;2022-07-29T04:05:17;8.20;;;2.77;;
25715;SDS011;13573;50.936;4.328;2022-07-29T04:07:44;6.97;;;3.07;;
25715;SDS011;13573;50.936;4.328;2022-07-29T04:10:12;7.63;;;3.13;;
25715;SDS011;13573;50.936;4.328;2022-07-29T04:12:41;6.03;;;3.17;;
25715;SDS011;13573;50.936;4.328;2022-07-29T04:15:07;8.37;;;3.53;;
25715;SDS011;13573;50.936;4.328;2022-07-29T04:17:35;4.93;;;3.10;;
25715;SDS011;13573;50.936;4.328;2022-07-29T04:20:01;6.37;;;3.30;;
25715;SDS011;13573;50.936;4.328;2022-07-29T04:22:29;6.20;;;3.10;;
25715;SDS011;13573;50.936;4.328;2022-07-29T04:24:56;3.70;;;2.80;;
25715;SDS011;13573;50.936;4.328;2022-07-29T04:27:22;6.27;;;3.00;;
25715;SDS011;13573;50.936;4.328;2022-07-29T04:29:49;4.90;;;3.10;;
25715;SDS011;13573;50.936;4.328;2022-07-29T04:32:16;5.93;;;3.33;;
25715;SDS011;13573;50.936;4.328;2022-07-29T04:34:43;8.13;;;3.33;;
25715;SDS011;13573;50.936;4.328;2022-07-29T04:37:12;7.07;;;3.40;;
25715;SDS011;13573;50.936;4.328;2022-07-29T04:39:38;7.57;;;3.30;;
25715;SDS011;13573;50.936;4.328;2022-07-29T04:42:05;10.53;;;3.27;;
25715;SDS011;13573;50.936;4.328;2022-07-29T04:44:32;5.60;;;3.07;;
25715;SDS011;13573;50.936;4.328;2022-07-29T04:46:59;4.33;;;2.97;;
25715;SDS011;13573;50.936;4.328;2022-07-29T04:49:25;6.97;;;2.97;;
25715;SDS011;13573;50.936;4.328;2022-07-29T04:51:53;5.67;;;3.30;;
25715;SDS011;13573;50.936;4.328;2022-07-29T04:54:20;6.03;;;3.03;;
25715;SDS011;13573;50.936;4.328;2022-07-29T04:56:47;6.33;;;2.80;;
25715;SDS011;13573;50.936;4.328;2022-07-29T04:59:14;8.40;;;3.30;;
25715;SDS011;13573;50.936;4.328;2022-07-29T05:01:43;8.60;;;3.50;;
25715;SDS011;13573;50.936;4.328;2022-07-29T05:04:10;6.50;;;3.50;;
25715;SDS011;13573;50.936;4.328;2022-07-29T05:06:36;6.87;;;3.57;;
25715;SDS011;13573;50.936;4.328;2022-07-29T05:09:03;8.90;;;3.57;;
25715;SDS011;13573;50.936;4.328;2022-07-29T05:11:29;8.47;;;3.77;;
25715;SDS011;13573;50.936;4.328;2022-07-29T05:13:57;5.60;;;3.07;;
25715;SDS011;13573;50.936;4.328;2022-07-29T05:16:24;7.10;;;2.90;;
25715;SDS011;13573;50.936;4.328;2022-07-29T05:18:50;8.27;;;3.00;;
25715;SDS011;13573;50.936;4.328;2022-07-29T05:21:17;5.37;;;2.60;;
25715;SDS011;13573;50.936;4.328;2022-07-29T05:23:44;5.47;;;2.87;;
25715;SDS011;13573;50.936;4.328;2022-07-29T05:26:10;7.43;;;3.10;;
25715;SDS011;13573;50.936;4.328;2022-07-29T05:28:37;5.67;;;2.80;;
25715;SDS011;13573;50.936;4.328;2022-07-29T05:31:04;5.00;;;2.90;;
25715;SDS011;13573;50.936;4.328;2022-07-29T05:33:30;5.13;;;2.90;;
25715;SDS011;13573;50.936;4.328;2022-07-29T05:35:57;5.80;;;2.63;;
25715;SDS011;13573;50.936;4.328;2022-07-29T05:38:24;6.50;;;2.30;;
25715;SDS011;13573;50.936;4.328;2022-07-29T05:40:51;4.60;;;2.87;;
25715;SDS011;13573;50.936;4.328;2022-07-29T05:43:18;6.30;;;2.67;;
25715;SDS011;13573;50.936;4.328;2022-07-29T05:45:44;6.10;;;2.40;;
25715;SDS011;13573;50.936;4.328;2022-07-29T05:48:11;4.97;;;2.43;;
25715;SDS011;13573;50.936;4.328;2022-07-29T05:50:37;4.37;;;2.60;;
25715;SDS011;13573;50.936;4.328;2022-07-29T05:53:04;5.23;;;2.60;;
25715;SDS011;13573;50.936;4.328;2022-07-29T05:55:31;6.17;;;2.90;;
25715;SDS011;13573;50.936;4.328;2022-07-29T05:57:57;6.13;;;3.03;;
25715;SDS011;13573;50.936;4.328;2022-07-29T06:00:24;7.53;;;3.20;;
25715;SDS011;13573;50.936;4.328;2022-07-29T06:02:51;5.80;;;2.83;;
25715;SDS011;13573;50.936;4.328;2022-07-29T06:05:17;7.07;;;3.30;;
25715;SDS011;13573;50.936;4.328;2022-07-29T06:07:44;7.77;;;3.10;;
25715;SDS011;13573;50.936;4.328;2022-07-29T06:10:11;6.43;;;2.77;;
25715;SDS011;13573;50.936;4.328;2022-07-29T06:12:37;5.27;;;2.80;;
25715;SDS011;13573;50.936;4.328;2022-07-29T06:15:05;8.23;;;2.60;;
25715;SDS011;13573;50.936;4.328;2022-07-29T06:17:31;4.53;;;2.80;;
25715;SDS011;13573;50.936;4.328;2022-07-29T06:19:58;4.70;;;2.90;;
25715;SDS011;13573;50.936;4.328;2022-07-29T06:22:24;6.37;;;2.90;;
25715;SDS011;13573;50.936;4.328;2022-07-29T06:24:51;7.07;;;3.07;;
25715;SDS011;13573;50.936;4.328;2022-07-29T06:27:17;6.77;;;2.83;;
25715;SDS011;13573;50.936;4.328;2022-07-29T06:29:45;11.60;;;2.80;;
25715;SDS011;13573;50.936;4.328;2022-07-29T06:32:11;6.63;;;2.80;;
25715;SDS011;13573;50.936;4.328;2022-07-29T06:34:37;4.37;;;2.40;;
25715;SDS011;13573;50.936;4.328;2022-07-29T06:37:05;7.00;;;2.57;;
25715;SDS011;13573;50.936;4.328;2022-07-29T06:39:34;10.83;;;2.50;;
25715;SDS011;13573;50.936;4.328;2022-07-29T06:42:03;6.97;;;2.50;;
25715;SDS011;13573;50.936;4.328;2022-07-29T06:44:30;3.53;;;2.60;;
25715;SDS011;13573;50.936;4.328;2022-07-29T06:46:59;5.73;;;2.73;;
25715;SDS011;13573;50.936;4.328;2022-07-29T06:49:26;5.73;;;2.77;;
25715;SDS011;13573;50.936;4.328;2022-07-29T06:51:54;4.33;;;2.63;;
25715;SDS011;13573;50.936;4.328;2022-07-29T06:54:21;5.57;;;2.70;;
25715;SDS011;13573;50.936;4.328;2022-07-29T06:56:49;6.47;;;2.47;;
25715;SDS011;13573;50.936;4.328;2022-07-29T06:59:15;5.23;;;2.60;;
25715;SDS011;13573;50.936;4.328;2022-07-29T07:01:42;6.00;;;2.83;;
25715;SDS011;13573;50.936;4.328;2022-07-29T07:04:09;10.53;;;2.83;;
25715;SDS011;13573;50.936;4.328;2022-07-29T07:06:36;4.60;;;2.87;;
25715;SDS011;13573;50.936;4.328;2022-07-29T07:09:04;7.53;;;3.17;;
25715;SDS011;13573;50.936;4.328;2022-07-29T07:11:31;6.57;;;2.80;;
25715;SDS011;13573;50.936;4.328;2022-07-29T07:13:57;6.37;;;2.90;;
25715;SDS011;13573;50.936;4.328;2022-07-29T07:16:24;3.97;;;2.70;;
25715;SDS011;13573;50.936;4.328;2022-07-29T07:18:51;6.40;;;3.23;;
25715;SDS011;13573;50.936;4.328;2022-07-29T07:21:18;6.23;;;2.97;;
25715;SDS011;13573;50.936;4.328;2022-07-29T07:23:45;6.90;;;2.77;;
25715;SDS011;13573;50.936;4.328;2022-07-29T07:26:12;4.37;;;2.83;;
25715;SDS011;13573;50.936;4.328;2022-07-29T07:28:39;5.67;;;2.80;;
25715;SDS011;13573;50.936;4.328;2022-07-29T07:31:13;4.60;;;3.00;;
25715;SDS011;13573;50.936;4.328;2022-07-29T07:33:39;6.00;;;2.30;;
25715;SDS011;13573;50.936;4.328;2022-07-29T07:36:06;4.97;;;2.70;;
25715;SDS011;13573;50.936;4.328;2022-07-29T07:38:33;4.25;;;2.67;;
25715;SDS011;13573;50.936;4.328;2022-07-29T07:58:06;4.83;;;2.80;;
25715;SDS011;13573;50.936;4.328;2022-07-29T08:05:26;7.20;;;2.20;;
25715;SDS011;13573;50.936;4.328;2022-07-29T08:27:29;4.60;;;2.35;;
25715;SDS011;13573;50.936;4.328;2022-07-29T08:29:57;3.90;;;2.10;;
25715;SDS011;13573;50.936;4.328;2022-07-29T08:32:24;4.25;;;2.35;;
25715;SDS011;13573;50.936;4.328;2022-07-29T08:39:43;5.20;;;2.20;;
25715;SDS011;13573;50.936;4.328;2022-07-29T08:42:10;4.20;;;2.60;;
25715;SDS011;13573;50.936;4.328;2022-07-29T08:44:37;9.95;;;3.10;;
25715;SDS011;13573;50.936;4.328;2022-07-29T08:49:32;4.20;;;2.50;;
25715;SDS011;13573;50.936;4.328;2022-07-29T08:52:00;7.10;;;2.30;;
25715;SDS011;13573;50.936;4.328;2022-07-29T08:54:27;3.05;;;2.00;;
25715;SDS011;13573;50.936;4.328;2022-07-29T08:56:55;4.80;;;2.10;;
25715;SDS011;13573;50.936;4.328;2022-07-29T08:59:22;3.87;;;2.40;;
25715;SDS011;13573;50.936;4.328;2022-07-29T09:01:54;4.05;;;2.30;;
25715;SDS011;13573;50.936;4.328;2022-07-29T09:04:26;3.90;;;2.30;;
25715;SDS011;13573;50.936;4.328;2022-07-29T09:06:56;4.42;;;2.40;;
25715;SDS011;13573;50.936;4.328;2022-07-29T09:09:26;3.83;;;2.00;;
25715;SDS011;13573;50.936;4.328;2022-07-29T09:11:53;3.98;;;1.87;;
25715;SDS011;13573;50.936;4.328;2022-07-29T09:14:19;6.28;;;2.30;;
25715;SDS011;13573;50.936;4.328;2022-07-29T09:16:46;3.00;;;2.12;;
25715;SDS011;13573;50.936;4.328;2022-07-29T09:19:31;4.55;;;2.12;;
25715;SDS011;13573;50.936;4.328;2022-07-29T09:22:00;4.50;;;1.87;;
25715;SDS011;13573;50.936;4.328;2022-07-29T09:24:37;4.10;;;2.20;;
25715;SDS011;13573;50.936;4.328;2022-07-29T09:27:10;5.40;;;2.30;;
25715;SDS011;13573;50.936;4.328;2022-07-29T09:29:46;7.50;;;2.30;;
25715;SDS011;13573;50.936;4.328;2022-07-29T09:32:15;4.75;;;2.30;;
25715;SDS011;13573;50.936;4.328;2022-07-29T09:34:42;3.00;;;1.92;;
25715;SDS011;13573;50.936;4.328;2022-07-29T09:37:08;6.10;;;2.80;;
25715;SDS011;13573;50.936;4.328;2022-07-29T09:39:38;3.20;;;2.15;;
25715;SDS011;13573;50.936;4.328;2022-07-29T09:42:08;4.08;;;2.12;;
25715;SDS011;13573;50.936;4.328;2022-07-29T09:44:41;5.60;;;2.05;;
25715;SDS011;13573;50.936;4.328;2022-07-29T09:47:13;4.92;;;1.60;;
25715;SDS011;13573;50.936;4.328;2022-07-29T09:50:00;4.50;;;2.25;;
25715;SDS011;13573;50.936;4.328;2022-07-29T09:52:27;2.95;;;1.80;;
25715;SDS011;13573;50.936;4.328;2022-07-29T09:57:32;5.75;;;2.30;;
25715;SDS011;13573;50.936;4.328;2022-07-29T10:00:00;6.85;;;2.35;;
25715;SDS011;13573;50.936;4.328;2022-07-29T10:02:31;7.45;;;2.50;;
25715;SDS011;13573;50.936;4.328;2022-07-29T10:05:00;5.62;;;2.10;;
25715;SDS011;13573;50.936;4.328;2022-07-29T10:07:42;7.37;;;1.82;;
25715;SDS011;13573;50.936;4.328;2022-07-29T10:10:02;4.58;;;1.80;;
25715;SDS011;13573;50.936;4.328;2022-07-29T10:12:29;5.50;;;2.52;;
25715;SDS011;13573;50.936;4.328;2022-07-29T10:14:55;6.87;;;2.37;;
25715;SDS011;13573;50.936;4.328;2022-07-29T10:17:22;5.30;;;2.02;;
25715;SDS011;13573;50.936;4.328;2022-07-29T10:19:49;8.13;;;2.77;;
25715;SDS011;13573;50.936;4.328;2022-07-29T10:22:16;7.40;;;2.95;;
25715;SDS011;13573;50.936;4.328;2022-07-29T10:24:42;6.95;;;2.80;;
25715;SDS011;13573;50.936;4.328;2022-07-29T10:27:10;5.65;;;2.75;;
25715;SDS011;13573;50.936;4.328;2022-07-29T10:29:36;4.95;;;2.25;;
25715;SDS011;13573;50.936;4.328;2022-07-29T10:32:09;4.75;;;2.47;;
25715;SDS011;13573;50.936;4.328;2022-07-29T10:37:50;4.28;;;2.52;;
25715;SDS011;13573;50.936;4.328;2022-07-29T10:40:36;7.97;;;2.52;;
25715;SDS011;13573;50.936;4.328;2022-07-29T10:43:27;5.67;;;2.65;;
25715;SDS011;13573;50.936;4.328;2022-07-29T10:45:59;6.33;;;2.42;;
25715;SDS011;13573;50.936;4.328;2022-07-29T10:48:26;3.17;;;2.05;;
25715;SDS011;13573;50.936;4.328;2022-07-29T10:50:56;6.05;;;3.30;;
25715;SDS011;13573;50.936;4.328;2022-07-29T10:56:08;6.75;;;3.12;;
25715;SDS011;13573;50.936;4.328;2022-07-29T10:58:37;7.60;;;3.12;;
25715;SDS011;13573;50.936;4.328;2022-07-29T11:01:27;6.50;;;2.65;;
25715;SDS011;13573;50.936;4.328;2022-07-29T11:03:43;6.12;;;2.85;;
25715;SDS011;13573;50.936;4.328;2022-07-29T11:06:13;6.25;;;2.62;;
25715;SDS011;13573;50.936;4.328;2022-07-29T11:08:40;7.78;;;2.30;;
25715;SDS011;13573;50.936;4.328;2022-07-29T11:11:44;7.70;;;1.72;;
25715;SDS011;13573;50.936;4.328;2022-07-29T11:13:57;4.95;;;1.72;;
25715;SDS011;13573;50.936;4.328;2022-07-29T11:16:24;4.53;;;2.20;;
25715;SDS011;13573;50.936;4.328;2022-07-29T11:21:34;6.62;;;3.20;;
25715;SDS011;13573;50.936;4.328;2022-07-29T11:26:39;6.15;;;3.22;;
25715;SDS011;13573;50.936;4.328;2022-07-29T11:31:40;9.58;;;3.12;;
25715;SDS011;13573;50.936;4.328;2022-07-29T11:39:27;6.22;;;3.30;;
25715;SDS011;13573;50.936;4.328;2022-07-29T11:42:19;6.12;;;3.52;;
25715;SDS011;13573;50.936;4.328;2022-07-29T11:47:23;6.83;;;2.80;;
25715;SDS011;13573;50.936;4.328;2022-07-29T11:49:51;6.28;;;2.33;;
25715;SDS011;13573;50.936;4.328;2022-07-29T11:52:20;6.67;;;2.22;;
25715;SDS011;13573;50.936;4.328;2022-07-29T11:54:47;4.45;;;2.40;;
25715;SDS011;13573;50.936;4.328;2022-07-29T11:57:17;5.12;;;2.25;;
25715;SDS011;13573;50.936;4.328;2022-07-29T11:59:45;6.05;;;2.45;;
25715;SDS011;13573;50.936;4.328;2022-07-29T12:02:14;4.72;;;2.58;;
25715;SDS011;13573;50.936;4.328;2022-07-29T12:07:18;6.10;;;2.80;;
25715;SDS011;13573;50.936;4.328;2022-07-29T12:09:50;6.87;;;2.95;;
25715;SDS011;13573;50.936;4.328;2022-07-29T12:12:17;8.93;;;2.40;;
25715;SDS011;13573;50.936;4.328;2022-07-29T12:14:45;5.28;;;2.37;;
25715;SDS011;13573;50.936;4.328;2022-07-29T12:19:51;6.22;;;2.60;;
25715;SDS011;13573;50.936;4.328;2022-07-29T12:22:25;6.17;;;2.00;;
25715;SDS011;13573;50.936;4.328;2022-07-29T12:25:00;5.62;;;2.75;;
25715;SDS011;13573;50.936;4.328;2022-07-29T12:27:28;5.20;;;1.90;;
25715;SDS011;13573;50.936;4.328;2022-07-29T12:29:56;6.90;;;2.42;;
25715;SDS011;13573;50.936;4.328;2022-07-29T12:32:33;7.40;;;2.50;;
25715;SDS011;13573;50.936;4.328;2022-07-29T12:35:03;6.50;;;2.17;;
25715;SDS011;13573;50.936;4.328;2022-07-29T12:37:34;6.20;;;2.30;;
25715;SDS011;13573;50.936;4.328;2022-07-29T12:40:02;5.12;;;2.08;;
25715;SDS011;13573;50.936;4.328;2022-07-29T12:42:30;5.67;;;2.10;;
25715;SDS011;13573;50.936;4.328;2022-07-29T12:44:57;6.47;;;2.20;;
25715;SDS011;13573;50.936;4.328;2022-07-29T12:47:24;4.72;;;2.52;;
25715;SDS011;13573;50.936;4.328;2022-07-29T12:49:52;3.98;;;1.77;;
25715;SDS011;13573;50.936;4.328;2022-07-29T12:52:42;6.10;;;2.50;;
25715;SDS011;13573;50.936;4.328;2022-07-29T12:55:11;6.00;;;2.20;;
25715;SDS011;13573;50.936;4.328;2022-07-29T12:57:44;8.48;;;2.27;;
25715;SDS011;13573;50.936;4.328;2022-07-29T13:00:13;5.75;;;2.95;;
25715;SDS011;13573;50.936;4.328;2022-07-29T13:02:41;6.20;;;2.52;;
25715;SDS011;13573;50.936;4.328;2022-07-29T13:05:09;5.87;;;1.90;;
25715;SDS011;13573;50.936;4.328;2022-07-29T13:07:38;11.18;;;2.20;;
25715;SDS011;13573;50.936;4.328;2022-07-29T13:15:19;6.03;;;1.95;;
25715;SDS011;13573;50.936;4.328;2022-07-29T13:17:45;3.62;;;1.50;;
25715;SDS011;13573;50.936;4.328;2022-07-29T13:20:12;4.45;;;1.85;;
25715;SDS011;13573;50.936;4.328;2022-07-29T13:22:40;7.55;;;2.02;;
25715;SDS011;13573;50.936;4.328;2022-07-29T13:25:08;5.00;;;1.67;;
25715;SDS011;13573;50.936;4.328;2022-07-29T13:27:36;3.25;;;1.50;;
25715;SDS011;13573;50.936;4.328;2022-07-29T13:30:05;4.22;;;1.85;;
25715;SDS011;13573;50.936;4.328;2022-07-29T13:32:34;5.00;;;1.82;;
25715;SDS011;13573;50.936;4.328;2022-07-29T13:35:03;5.12;;;1.85;;
25715;SDS011;13573;50.936;4.328;2022-07-29T13:37:32;8.38;;;1.92;;
25715;SDS011;13573;50.936;4.328;2022-07-29T13:40:00;5.58;;;2.10;;
25715;SDS011;13573;50.936;4.328;2022-07-29T13:42:28;3.42;;;1.90;;
25715;SDS011;13573;50.936;4.328;2022-07-29T13:44:55;6.90;;;1.82;;
25715;SDS011;13573;50.936;4.328;2022-07-29T13:47:22;4.12;;;2.05;;
25715;SDS011;13573;50.936;4.328;2022-07-29T13:49:49;6.12;;;1.98;;
25715;SDS011;13573;50.936;4.328;2022-07-29T13:52:16;6.22;;;2.25;;
25715;SDS011;13573;50.936;4.328;2022-07-29T13:54:43;9.60;;;2.15;;
25715;SDS011;13573;50.936;4.328;2022-07-29T13:57:10;3.80;;;2.00;;
25715;SDS011;13573;50.936;4.328;2022-07-29T13:59:38;4.42;;;1.55;;
25715;SDS011;13573;50.936;4.328;2022-07-29T14:02:07;3.58;;;1.87;;
25715;SDS011;13573;50.936;4.328;2022-07-29T14:04:35;6.08;;;1.80;;
25715;SDS011;13573;50.936;4.328;2022-07-29T14:07:02;7.85;;;2.10;;
25715;SDS011;13573;50.936;4.328;2022-07-29T14:09:29;4.80;;;1.70;;
25715;SDS011;13573;50.936;4.328;2022-07-29T14:11:56;3.98;;;2.00;;
25715;SDS011;13573;50.936;4.328;2022-07-29T14:14:22;2.85;;;1.67;;
25715;SDS011;13573;50.936;4.328;2022-07-29T14:16:50;3.15;;;1.75;;
25715;SDS011;13573;50.936;4.328;2022-07-29T14:19:16;4.97;;;1.70;;
25715;SDS011;13573;50.936;4.328;2022-07-29T14:21:43;3.60;;;1.80;;
25715;SDS011;13573;50.936;4.328;2022-07-29T14:24:10;3.87;;;1.72;;
25715;SDS011;13573;50.936;4.328;2022-07-29T14:26:36;3.85;;;1.70;;
25715;SDS011;13573;50.936;4.328;2022-07-29T14:29:03;8.25;;;1.72;;
25715;SDS011;13573;50.936;4.328;2022-07-29T14:31:30;4.17;;;1.90;;
25715;SDS011;13573;50.936;4.328;2022-07-29T14:33:57;5.58;;;1.50;;
25715;SDS011;13573;50.936;4.328;2022-07-29T14:36:23;7.47;;;2.17;;
25715;SDS011;13573;50.936;4.328;2022-07-29T14:38:50;5.95;;;1.85;;
25715;SDS011;13573;50.936;4.328;2022-07-29T14:41:17;6.55;;;2.10;;
25715;SDS011;13573;50.936;4.328;2022-07-29T14:43:43;7.70;;;2.20;;
25715;SDS011;13573;50.936;4.328;2022-07-29T14:46:10;4.75;;;2.40;;
25715;SDS011;13573;50.936;4.328;2022-07-29T14:48:37;5.05;;;2.20;;
25715;SDS011;13573;50.936;4.328;2022-07-29T14:51:03;4.58;;;2.10;;
25715;SDS011;13573;50.936;4.328;2022-07-29T14:53:30;3.90;;;2.58;;
25715;SDS011;13573;50.936;4.328;2022-07-29T14:55:58;7.92;;;2.42;;
25715;SDS011;13573;50.936;4.328;2022-07-29T14:58:25;7.22;;;2.40;;
25715;SDS011;13573;50.936;4.328;2022-07-29T15:00:52;9.73;;;2.35;;
25715;SDS011;13573;50.936;4.328;2022-07-29T15:03:20;6.25;;;2.90;;
25715;SDS011;13573;50.936;4.328;2022-07-29T15:05:46;7.05;;;2.50;;
25715;SDS011;13573;50.936;4.328;2022-07-29T15:08:13;7.80;;;2.72;;
25715;SDS011;13573;50.936;4.328;2022-07-29T15:10:40;4.30;;;2.30;;
25715;SDS011;13573;50.936;4.328;2022-07-29T15:13:07;3.58;;;2.17;;
25715;SDS011;13573;50.936;4.328;2022-07-29T15:15:34;3.12;;;2.60;;
25715;SDS011;13573;50.936;4.328;2022-07-29T15:18:00;7.53;;;2.70;;
25715;SDS011;13573;50.936;4.328;2022-07-29T15:20:27;5.33;;;3.00;;
25715;SDS011;13573;50.936;4.328;2022-07-29T15:22:55;3.80;;;1.92;;
25715;SDS011;13573;50.936;4.328;2022-07-29T15:25:23;7.50;;;3.33;;
25715;SDS011;13573;50.936;4.328;2022-07-29T15:27:51;4.72;;;3.10;;
25715;SDS011;13573;50.936;4.328;2022-07-29T15:30:18;6.60;;;2.62;;
25715;SDS011;13573;50.936;4.328;2022-07-29T15:32:44;4.90;;;2.75;;
25715;SDS011;13573;50.936;4.328;2022-07-29T15:35:12;4.65;;;2.42;;
25715;SDS011;13573;50.936;4.328;2022-07-29T15:37:39;8.25;;;3.00;;
25715;SDS011;13573;50.936;4.328;2022-07-29T15:40:06;6.20;;;2.72;;
25715;SDS011;13573;50.936;4.328;2022-07-29T15:42:34;5.72;;;2.40;;
25715;SDS011;13573;50.936;4.328;2022-07-29T15:45:03;3.98;;;2.92;;
25715;SDS011;13573;50.936;4.328;2022-07-29T15:47:30;5.50;;;3.20;;
25715;SDS011;13573;50.936;4.328;2022-07-29T15:49:56;7.95;;;3.80;;
25715;SDS011;13573;50.936;4.328;2022-07-29T15:52:23;8.48;;;3.02;;
25715;SDS011;13573;50.936;4.328;2022-07-29T15:54:50;5.50;;;3.45;;
25715;SDS011;13573;50.936;4.328;2022-07-29T15:57:16;6.45;;;2.90;;
25715;SDS011;13573;50.936;4.328;2022-07-29T15:59:43;5.40;;;2.10;;
25715;SDS011;13573;50.936;4.328;2022-07-29T16:02:09;7.03;;;2.90;;
25715;SDS011;13573;50.936;4.328;2022-07-29T16:04:37;3.98;;;2.47;;
25715;SDS011;13573;50.936;4.328;2022-07-29T16:07:03;6.58;;;2.60;;
25715;SDS011;13573;50.936;4.328;2022-07-29T16:09:30;8.65;;;2.67;;
25715;SDS011;13573;50.936;4.328;2022-07-29T16:11:58;3.95;;;2.80;;
25715;SDS011;13573;50.936;4.328;2022-07-29T16:14:24;4.83;;;2.70;;
25715;SDS011;13573;50.936;4.328;2022-07-29T16:16:51;6.47;;;2.65;;
25715;SDS011;13573;50.936;4.328;2022-07-29T16:19:18;6.58;;;3.02;;
25715;SDS011;13573;50.936;4.328;2022-07-29T16:21:45;4.60;;;2.60;;
25715;SDS011;13573;50.936;4.328;2022-07-29T16:24:11;5.03;;;2.80;;
25715;SDS011;13573;50.936;4.328;2022-07-29T16:26:39;4.12;;;2.83;;